Glen Carbon, Illinois
Current Conditions -  °F | °C
As of 4:50 PM on Thursday 18 Dec 2014 (Local Time) from KALN Reporting Station
Overcast Overcast  
Wind Chill: 29°   Ceiling: 3900
Heat Index: 34°   Visibility: 10mi
Dew Point: 25°   Wind: 6mph
Humidity: 70%   Direction: 50°NE
Pressure: 30.25"   Gusts: NA
Location:  38.76°N, 89.97°W
Report Text: KALN 182250Z 05005KT 10SM OVC039 01/M04 A3025
Loading
Personal Weather Stations






























Interactive Weather Map New forecast layout! Learn more

10-Day Weather Forecast

Advertisements
Track Severe Weather on mobile